sensor_id;sensor_type;location;lat;lon;timestamp;P1;durP1;ratioP1;P2;durP2;ratioP2
22334;SDS011;11335;43.848;25.958;2022-12-18T00:02:34;29.08;;;17.08;;
22334;SDS011;11335;43.848;25.958;2022-12-18T00:05:19;28.85;;;16.15;;
22334;SDS011;11335;43.848;25.958;2022-12-18T00:08:05;30.45;;;16.90;;
22334;SDS011;11335;43.848;25.958;2022-12-18T00:10:50;36.83;;;19.85;;
22334;SDS011;11335;43.848;25.958;2022-12-18T00:13:36;35.63;;;20.73;;
22334;SDS011;11335;43.848;25.958;2022-12-18T00:16:22;40.22;;;21.98;;
22334;SDS011;11335;43.848;25.958;2022-12-18T00:19:08;38.60;;;20.40;;
22334;SDS011;11335;43.848;25.958;2022-12-18T00:21:54;36.25;;;19.95;;
22334;SDS011;11335;43.848;25.958;2022-12-18T00:24:39;36.15;;;19.33;;
22334;SDS011;11335;43.848;25.958;2022-12-18T00:27:25;36.20;;;19.38;;
22334;SDS011;11335;43.848;25.958;2022-12-18T00:30:11;35.72;;;20.02;;
22334;SDS011;11335;43.848;25.958;2022-12-18T00:32:57;37.97;;;20.35;;
22334;SDS011;11335;43.848;25.958;2022-12-18T00:35:42;36.08;;;20.17;;
22334;SDS011;11335;43.848;25.958;2022-12-18T00:38:28;35.53;;;19.88;;
22334;SDS011;11335;43.848;25.958;2022-12-18T00:41:14;36.78;;;20.10;;
22334;SDS011;11335;43.848;25.958;2022-12-18T00:44:20;37.53;;;20.70;;
22334;SDS011;11335;43.848;25.958;2022-12-18T00:47:06;37.78;;;20.73;;
22334;SDS011;11335;43.848;25.958;2022-12-18T00:49:51;35.88;;;19.65;;
22334;SDS011;11335;43.848;25.958;2022-12-18T00:52:37;37.05;;;20.83;;
22334;SDS011;11335;43.848;25.958;2022-12-18T00:55:25;38.95;;;20.58;;
22334;SDS011;11335;43.848;25.958;2022-12-18T00:58:11;38.10;;;20.73;;
22334;SDS011;11335;43.848;25.958;2022-12-18T01:00:57;35.67;;;20.38;;
22334;SDS011;11335;43.848;25.958;2022-12-18T01:03:42;38.25;;;20.60;;
22334;SDS011;11335;43.848;25.958;2022-12-18T01:06:30;39.10;;;21.35;;
22334;SDS011;11335;43.848;25.958;2022-12-18T01:09:16;44.42;;;22.20;;
22334;SDS011;11335;43.848;25.958;2022-12-18T01:12:01;39.25;;;21.08;;
22334;SDS011;11335;43.848;25.958;2022-12-18T01:14:47;36.22;;;20.02;;
22334;SDS011;11335;43.848;25.958;2022-12-18T01:17:33;39.92;;;20.23;;
22334;SDS011;11335;43.848;25.958;2022-12-18T01:20:18;38.60;;;21.00;;
22334;SDS011;11335;43.848;25.958;2022-12-18T01:23:04;38.03;;;20.00;;
22334;SDS011;11335;43.848;25.958;2022-12-18T01:25:50;32.97;;;18.40;;
22334;SDS011;11335;43.848;25.958;2022-12-18T01:28:35;34.58;;;19.02;;
22334;SDS011;11335;43.848;25.958;2022-12-18T01:34:07;32.83;;;18.70;;
22334;SDS011;11335;43.848;25.958;2022-12-18T01:36:54;33.72;;;18.52;;
22334;SDS011;11335;43.848;25.958;2022-12-18T01:39:39;33.72;;;18.73;;
22334;SDS011;11335;43.848;25.958;2022-12-18T01:42:25;35.33;;;18.98;;
22334;SDS011;11335;43.848;25.958;2022-12-18T01:48:00;30.67;;;18.35;;
22334;SDS011;11335;43.848;25.958;2022-12-18T01:50:46;33.38;;;18.05;;
22334;SDS011;11335;43.848;25.958;2022-12-18T01:53:32;41.55;;;23.00;;
22334;SDS011;11335;43.848;25.958;2022-12-18T01:56:18;36.92;;;20.60;;
22334;SDS011;11335;43.848;25.958;2022-12-18T01:59:05;32.28;;;18.88;;
22334;SDS011;11335;43.848;25.958;2022-12-18T02:01:51;30.05;;;17.55;;
22334;SDS011;11335;43.848;25.958;2022-12-18T02:04:37;32.08;;;17.75;;
22334;SDS011;11335;43.848;25.958;2022-12-18T02:07:26;35.33;;;18.67;;
22334;SDS011;11335;43.848;25.958;2022-12-18T02:10:15;30.92;;;18.02;;
22334;SDS011;11335;43.848;25.958;2022-12-18T02:13:20;28.80;;;16.77;;
22334;SDS011;11335;43.848;25.958;2022-12-18T02:18:58;31.58;;;17.30;;
22334;SDS011;11335;43.848;25.958;2022-12-18T02:21:54;32.53;;;17.30;;
22334;SDS011;11335;43.848;25.958;2022-12-18T02:25:19;30.25;;;18.27;;
22334;SDS011;11335;43.848;25.958;2022-12-18T02:27:53;35.17;;;18.95;;
22334;SDS011;11335;43.848;25.958;2022-12-18T02:30:40;30.77;;;18.23;;
22334;SDS011;11335;43.848;25.958;2022-12-18T02:33:27;36.92;;;19.00;;
22334;SDS011;11335;43.848;25.958;2022-12-18T02:36:13;33.55;;;18.48;;
22334;SDS011;11335;43.848;25.958;2022-12-18T02:39:01;37.20;;;19.10;;
22334;SDS011;11335;43.848;25.958;2022-12-18T02:41:47;30.20;;;17.95;;
22334;SDS011;11335;43.848;25.958;2022-12-18T02:44:34;32.10;;;18.65;;
22334;SDS011;11335;43.848;25.958;2022-12-18T02:47:21;33.47;;;18.55;;
22334;SDS011;11335;43.848;25.958;2022-12-18T03:01:21;34.95;;;18.80;;
22334;SDS011;11335;43.848;25.958;2022-12-18T03:04:13;33.03;;;19.17;;
22334;SDS011;11335;43.848;25.958;2022-12-18T03:07:01;33.92;;;19.17;;
22334;SDS011;11335;43.848;25.958;2022-12-18T03:09:48;36.10;;;19.52;;
22334;SDS011;11335;43.848;25.958;2022-12-18T03:12:36;39.78;;;21.25;;
22334;SDS011;11335;43.848;25.958;2022-12-18T03:15:24;36.25;;;19.92;;
22334;SDS011;11335;43.848;25.958;2022-12-18T03:18:16;40.95;;;21.08;;
22334;SDS011;11335;43.848;25.958;2022-12-18T03:21:03;36.20;;;20.75;;
22334;SDS011;11335;43.848;25.958;2022-12-18T03:23:50;39.78;;;21.30;;
22334;SDS011;11335;43.848;25.958;2022-12-18T03:26:37;39.38;;;21.52;;
22334;SDS011;11335;43.848;25.958;2022-12-18T03:29:28;40.90;;;22.00;;
22334;SDS011;11335;43.848;25.958;2022-12-18T03:32:24;38.10;;;21.40;;
22334;SDS011;11335;43.848;25.958;2022-12-18T03:35:11;40.17;;;21.13;;
22334;SDS011;11335;43.848;25.958;2022-12-18T03:37:58;38.72;;;21.77;;
22334;SDS011;11335;43.848;25.958;2022-12-18T03:43:35;42.35;;;22.77;;
22334;SDS011;11335;43.848;25.958;2022-12-18T03:49:46;44.85;;;23.63;;
22334;SDS011;11335;43.848;25.958;2022-12-18T03:52:35;42.05;;;23.33;;
22334;SDS011;11335;43.848;25.958;2022-12-18T03:55:21;43.65;;;22.55;;
22334;SDS011;11335;43.848;25.958;2022-12-18T03:58:08;46.28;;;24.60;;
22334;SDS011;11335;43.848;25.958;2022-12-18T04:00:56;43.30;;;24.25;;
22334;SDS011;11335;43.848;25.958;2022-12-18T04:03:43;42.92;;;22.80;;
22334;SDS011;11335;43.848;25.958;2022-12-18T04:06:30;43.72;;;23.20;;
22334;SDS011;11335;43.848;25.958;2022-12-18T04:09:15;44.38;;;23.85;;
22334;SDS011;11335;43.848;25.958;2022-12-18T04:12:01;45.92;;;24.13;;
22334;SDS011;11335;43.848;25.958;2022-12-18T04:14:47;44.03;;;23.55;;
22334;SDS011;11335;43.848;25.958;2022-12-18T04:17:33;46.72;;;23.45;;
22334;SDS011;11335;43.848;25.958;2022-12-18T04:20:18;45.53;;;23.17;;
22334;SDS011;11335;43.848;25.958;2022-12-18T04:23:04;48.17;;;23.90;;
22334;SDS011;11335;43.848;25.958;2022-12-18T04:25:49;42.40;;;23.15;;
22334;SDS011;11335;43.848;25.958;2022-12-18T04:28:35;45.60;;;24.08;;
22334;SDS011;11335;43.848;25.958;2022-12-18T04:31:21;46.08;;;24.48;;
22334;SDS011;11335;43.848;25.958;2022-12-18T04:34:06;45.10;;;22.48;;
22334;SDS011;11335;43.848;25.958;2022-12-18T04:36:52;49.40;;;25.42;;
22334;SDS011;11335;43.848;25.958;2022-12-18T04:39:38;45.83;;;24.20;;
22334;SDS011;11335;43.848;25.958;2022-12-18T04:42:23;47.08;;;24.23;;
22334;SDS011;11335;43.848;25.958;2022-12-18T04:45:09;47.05;;;25.02;;
22334;SDS011;11335;43.848;25.958;2022-12-18T04:47:56;45.03;;;23.50;;
22334;SDS011;11335;43.848;25.958;2022-12-18T04:50:42;47.28;;;24.50;;
22334;SDS011;11335;43.848;25.958;2022-12-18T04:53:27;49.80;;;25.38;;
22334;SDS011;11335;43.848;25.958;2022-12-18T04:56:14;44.15;;;23.52;;
22334;SDS011;11335;43.848;25.958;2022-12-18T04:59:00;46.83;;;24.35;;
22334;SDS011;11335;43.848;25.958;2022-12-18T05:01:45;48.83;;;25.55;;
22334;SDS011;11335;43.848;25.958;2022-12-18T05:04:31;44.35;;;23.83;;
22334;SDS011;11335;43.848;25.958;2022-12-18T05:07:17;49.38;;;24.83;;
22334;SDS011;11335;43.848;25.958;2022-12-18T05:10:02;46.92;;;25.42;;
22334;SDS011;11335;43.848;25.958;2022-12-18T05:12:48;48.90;;;25.20;;
22334;SDS011;11335;43.848;25.958;2022-12-18T05:15:50;45.90;;;24.02;;
22334;SDS011;11335;43.848;25.958;2022-12-18T05:18:36;50.33;;;25.50;;
22334;SDS011;11335;43.848;25.958;2022-12-18T05:21:22;47.30;;;25.17;;
22334;SDS011;11335;43.848;25.958;2022-12-18T05:24:07;53.05;;;26.20;;
22334;SDS011;11335;43.848;25.958;2022-12-18T05:26:53;47.95;;;25.23;;
22334;SDS011;11335;43.848;25.958;2022-12-18T05:29:39;46.65;;;24.67;;
22334;SDS011;11335;43.848;25.958;2022-12-18T05:32:24;49.95;;;25.77;;
22334;SDS011;11335;43.848;25.958;2022-12-18T05:35:10;50.03;;;25.58;;
22334;SDS011;11335;43.848;25.958;2022-12-18T05:37:56;46.30;;;24.95;;
22334;SDS011;11335;43.848;25.958;2022-12-18T05:40:42;52.78;;;26.80;;
22334;SDS011;11335;43.848;25.958;2022-12-18T05:43:28;52.15;;;26.73;;
22334;SDS011;11335;43.848;25.958;2022-12-18T05:46:15;52.95;;;27.02;;
22334;SDS011;11335;43.848;25.958;2022-12-18T05:49:01;50.17;;;25.95;;
22334;SDS011;11335;43.848;25.958;2022-12-18T05:51:46;54.00;;;26.25;;
22334;SDS011;11335;43.848;25.958;2022-12-18T05:54:32;52.22;;;26.10;;
22334;SDS011;11335;43.848;25.958;2022-12-18T05:57:18;51.60;;;26.77;;
22334;SDS011;11335;43.848;25.958;2022-12-18T06:00:03;46.08;;;24.73;;
22334;SDS011;11335;43.848;25.958;2022-12-18T06:02:49;47.20;;;25.50;;
22334;SDS011;11335;43.848;25.958;2022-12-18T06:05:35;53.92;;;27.10;;
22334;SDS011;11335;43.848;25.958;2022-12-18T06:08:22;54.42;;;26.50;;
22334;SDS011;11335;43.848;25.958;2022-12-18T06:11:07;49.25;;;25.35;;
22334;SDS011;11335;43.848;25.958;2022-12-18T06:13:53;51.88;;;26.90;;
22334;SDS011;11335;43.848;25.958;2022-12-18T06:16:39;53.88;;;27.05;;
22334;SDS011;11335;43.848;25.958;2022-12-18T06:19:25;49.30;;;25.40;;
22334;SDS011;11335;43.848;25.958;2022-12-18T06:22:11;52.47;;;26.77;;
22334;SDS011;11335;43.848;25.958;2022-12-18T06:24:56;50.75;;;26.23;;
22334;SDS011;11335;43.848;25.958;2022-12-18T06:27:42;51.97;;;26.75;;
22334;SDS011;11335;43.848;25.958;2022-12-18T06:30:27;54.53;;;27.45;;
22334;SDS011;11335;43.848;25.958;2022-12-18T06:33:13;52.72;;;26.88;;
22334;SDS011;11335;43.848;25.958;2022-12-18T06:36:03;51.70;;;25.90;;
22334;SDS011;11335;43.848;25.958;2022-12-18T06:38:50;52.22;;;27.20;;
22334;SDS011;11335;43.848;25.958;2022-12-18T06:41:35;52.33;;;26.30;;
22334;SDS011;11335;43.848;25.958;2022-12-18T06:44:21;52.30;;;26.52;;
22334;SDS011;11335;43.848;25.958;2022-12-18T06:47:06;48.10;;;26.30;;
22334;SDS011;11335;43.848;25.958;2022-12-18T06:49:52;52.75;;;27.45;;
22334;SDS011;11335;43.848;25.958;2022-12-18T06:52:38;50.40;;;26.65;;
22334;SDS011;11335;43.848;25.958;2022-12-18T06:55:25;52.20;;;25.73;;
22334;SDS011;11335;43.848;25.958;2022-12-18T06:58:11;47.00;;;25.35;;
22334;SDS011;11335;43.848;25.958;2022-12-18T07:01:00;48.45;;;25.77;;
22334;SDS011;11335;43.848;25.958;2022-12-18T07:03:46;53.72;;;28.08;;
22334;SDS011;11335;43.848;25.958;2022-12-18T07:06:32;53.78;;;27.80;;
22334;SDS011;11335;43.848;25.958;2022-12-18T07:09:18;52.30;;;26.73;;
22334;SDS011;11335;43.848;25.958;2022-12-18T07:12:03;51.60;;;26.92;;
22334;SDS011;11335;43.848;25.958;2022-12-18T07:14:50;54.00;;;26.63;;
22334;SDS011;11335;43.848;25.958;2022-12-18T07:17:35;51.85;;;26.05;;
22334;SDS011;11335;43.848;25.958;2022-12-18T07:20:21;48.38;;;25.90;;
22334;SDS011;11335;43.848;25.958;2022-12-18T07:23:06;48.67;;;25.15;;
22334;SDS011;11335;43.848;25.958;2022-12-18T07:25:52;46.50;;;24.70;;
22334;SDS011;11335;43.848;25.958;2022-12-18T07:28:38;54.65;;;26.83;;
22334;SDS011;11335;43.848;25.958;2022-12-18T07:31:24;49.95;;;26.27;;
22334;SDS011;11335;43.848;25.958;2022-12-18T07:34:11;47.92;;;25.73;;
22334;SDS011;11335;43.848;25.958;2022-12-18T07:36:57;51.00;;;26.80;;
22334;SDS011;11335;43.848;25.958;2022-12-18T07:39:43;52.20;;;26.90;;
22334;SDS011;11335;43.848;25.958;2022-12-18T07:42:29;48.42;;;25.92;;
22334;SDS011;11335;43.848;25.958;2022-12-18T07:45:18;50.72;;;26.42;;
22334;SDS011;11335;43.848;25.958;2022-12-18T07:48:03;50.88;;;26.70;;
22334;SDS011;11335;43.848;25.958;2022-12-18T07:50:49;50.05;;;27.13;;
22334;SDS011;11335;43.848;25.958;2022-12-18T07:53:35;49.67;;;26.33;;
22334;SDS011;11335;43.848;25.958;2022-12-18T07:56:21;51.30;;;26.05;;
22334;SDS011;11335;43.848;25.958;2022-12-18T07:59:06;47.90;;;25.42;;
22334;SDS011;11335;43.848;25.958;2022-12-18T08:01:52;48.28;;;25.90;;
22334;SDS011;11335;43.848;25.958;2022-12-18T08:04:38;48.05;;;24.60;;
22334;SDS011;11335;43.848;25.958;2022-12-18T08:07:23;47.72;;;25.70;;
22334;SDS011;11335;43.848;25.958;2022-12-18T08:10:09;49.63;;;26.55;;
22334;SDS011;11335;43.848;25.958;2022-12-18T08:12:54;46.33;;;26.13;;
22334;SDS011;11335;43.848;25.958;2022-12-18T08:15:40;44.08;;;24.60;;
22334;SDS011;11335;43.848;25.958;2022-12-18T08:18:25;51.90;;;25.85;;
22334;SDS011;11335;43.848;25.958;2022-12-18T08:21:12;48.17;;;25.65;;
22334;SDS011;11335;43.848;25.958;2022-12-18T08:23:58;44.20;;;24.95;;
22334;SDS011;11335;43.848;25.958;2022-12-18T08:26:44;50.35;;;25.38;;
22334;SDS011;11335;43.848;25.958;2022-12-18T08:29:30;47.20;;;24.27;;
22334;SDS011;11335;43.848;25.958;2022-12-18T08:32:15;49.85;;;25.77;;
22334;SDS011;11335;43.848;25.958;2022-12-18T08:35:01;47.50;;;24.95;;
22334;SDS011;11335;43.848;25.958;2022-12-18T08:37:46;44.65;;;23.90;;
22334;SDS011;11335;43.848;25.958;2022-12-18T08:40:32;45.95;;;24.27;;
22334;SDS011;11335;43.848;25.958;2022-12-18T08:43:18;47.63;;;23.52;;
22334;SDS011;11335;43.848;25.958;2022-12-18T08:46:23;46.30;;;24.00;;
22334;SDS011;11335;43.848;25.958;2022-12-18T08:49:11;41.03;;;21.73;;
22334;SDS011;11335;43.848;25.958;2022-12-18T08:51:56;42.00;;;22.95;;
22334;SDS011;11335;43.848;25.958;2022-12-18T08:54:42;44.75;;;23.65;;
22334;SDS011;11335;43.848;25.958;2022-12-18T08:57:28;40.40;;;22.50;;
22334;SDS011;11335;43.848;25.958;2022-12-18T09:00:13;43.60;;;22.38;;
22334;SDS011;11335;43.848;25.958;2022-12-18T09:02:59;40.17;;;22.70;;
22334;SDS011;11335;43.848;25.958;2022-12-18T09:05:45;44.13;;;22.20;;
22334;SDS011;11335;43.848;25.958;2022-12-18T09:08:34;42.00;;;22.15;;
22334;SDS011;11335;43.848;25.958;2022-12-18T09:11:29;45.08;;;24.70;;
22334;SDS011;11335;43.848;25.958;2022-12-18T09:14:14;42.85;;;21.73;;
22334;SDS011;11335;43.848;25.958;2022-12-18T09:17:01;44.40;;;23.48;;
22334;SDS011;11335;43.848;25.958;2022-12-18T09:19:47;43.38;;;23.25;;
22334;SDS011;11335;43.848;25.958;2022-12-18T09:22:32;59.33;;;24.13;;
22334;SDS011;11335;43.848;25.958;2022-12-18T09:25:18;45.92;;;23.23;;
22334;SDS011;11335;43.848;25.958;2022-12-18T09:28:05;44.90;;;23.50;;
22334;SDS011;11335;43.848;25.958;2022-12-18T09:30:51;46.38;;;24.65;;
22334;SDS011;11335;43.848;25.958;2022-12-18T09:33:36;58.47;;;27.70;;
22334;SDS011;11335;43.848;25.958;2022-12-18T09:36:22;47.15;;;24.17;;
22334;SDS011;11335;43.848;25.958;2022-12-18T09:39:08;45.75;;;25.50;;
22334;SDS011;11335;43.848;25.958;2022-12-18T09:41:54;45.95;;;24.80;;
22334;SDS011;11335;43.848;25.958;2022-12-18T09:44:41;46.70;;;23.38;;
22334;SDS011;11335;43.848;25.958;2022-12-18T09:47:30;45.28;;;23.92;;
22334;SDS011;11335;43.848;25.958;2022-12-18T09:53:22;42.17;;;22.60;;
22334;SDS011;11335;43.848;25.958;2022-12-18T09:56:10;47.42;;;24.67;;
22334;SDS011;11335;43.848;25.958;2022-12-18T09:59:01;45.78;;;23.60;;
22334;SDS011;11335;43.848;25.958;2022-12-18T10:01:47;45.85;;;23.52;;
22334;SDS011;11335;43.848;25.958;2022-12-18T10:04:32;44.42;;;22.88;;
22334;SDS011;11335;43.848;25.958;2022-12-18T10:07:19;42.60;;;22.95;;
22334;SDS011;11335;43.848;25.958;2022-12-18T10:10:26;45.25;;;22.98;;
22334;SDS011;11335;43.848;25.958;2022-12-18T10:13:20;43.40;;;22.77;;
22334;SDS011;11335;43.848;25.958;2022-12-18T10:16:13;42.72;;;23.02;;
22334;SDS011;11335;43.848;25.958;2022-12-18T10:19:08;46.22;;;24.23;;
22334;SDS011;11335;43.848;25.958;2022-12-18T10:21:59;46.50;;;23.75;;
22334;SDS011;11335;43.848;25.958;2022-12-18T10:24:49;43.13;;;22.38;;
22334;SDS011;11335;43.848;25.958;2022-12-18T10:27:37;45.30;;;23.17;;
22334;SDS011;11335;43.848;25.958;2022-12-18T10:30:24;45.50;;;24.85;;
22334;SDS011;11335;43.848;25.958;2022-12-18T10:33:20;43.88;;;23.30;;
22334;SDS011;11335;43.848;25.958;2022-12-18T10:36:06;47.28;;;24.58;;
22334;SDS011;11335;43.848;25.958;2022-12-18T10:38:52;46.25;;;23.83;;
22334;SDS011;11335;43.848;25.958;2022-12-18T10:41:37;43.83;;;23.70;;
22334;SDS011;11335;43.848;25.958;2022-12-18T10:44:24;43.50;;;23.65;;
22334;SDS011;11335;43.848;25.958;2022-12-18T10:47:14;46.72;;;24.33;;
22334;SDS011;11335;43.848;25.958;2022-12-18T10:50:01;42.13;;;23.50;;
22334;SDS011;11335;43.848;25.958;2022-12-18T10:52:52;44.17;;;23.88;;
22334;SDS011;11335;43.848;25.958;2022-12-18T10:55:39;45.42;;;22.80;;
22334;SDS011;11335;43.848;25.958;2022-12-18T10:58:26;49.03;;;23.58;;
22334;SDS011;11335;43.848;25.958;2022-12-18T11:01:16;45.10;;;23.52;;
22334;SDS011;11335;43.848;25.958;2022-12-18T11:04:08;48.63;;;23.83;;
22334;SDS011;11335;43.848;25.958;2022-12-18T11:06:55;46.83;;;24.67;;
22334;SDS011;11335;43.848;25.958;2022-12-18T11:09:41;43.95;;;22.45;;
22334;SDS011;11335;43.848;25.958;2022-12-18T11:12:27;52.15;;;25.33;;
22334;SDS011;11335;43.848;25.958;2022-12-18T11:15:18;44.50;;;24.38;;
22334;SDS011;11335;43.848;25.958;2022-12-18T11:18:05;58.55;;;31.92;;
22334;SDS011;11335;43.848;25.958;2022-12-18T11:21:07;69.50;;;36.97;;
22334;SDS011;11335;43.848;25.958;2022-12-18T11:23:53;49.90;;;27.20;;
22334;SDS011;11335;43.848;25.958;2022-12-18T11:26:39;48.92;;;26.08;;
22334;SDS011;11335;43.848;25.958;2022-12-18T11:29:43;48.95;;;26.63;;
22334;SDS011;11335;43.848;25.958;2022-12-18T11:32:33;48.42;;;24.67;;
22334;SDS011;11335;43.848;25.958;2022-12-18T11:35:40;47.40;;;24.42;;
22334;SDS011;11335;43.848;25.958;2022-12-18T11:38:30;42.80;;;22.27;;
22334;SDS011;11335;43.848;25.958;2022-12-18T11:41:25;45.25;;;24.40;;
22334;SDS011;11335;43.848;25.958;2022-12-18T11:44:35;45.20;;;23.75;;
22334;SDS011;11335;43.848;25.958;2022-12-18T11:47:28;43.95;;;22.77;;
22334;SDS011;11335;43.848;25.958;2022-12-18T11:50:21;44.25;;;22.88;;
22334;SDS011;11335;43.848;25.958;2022-12-18T11:53:10;45.22;;;23.48;;
22334;SDS011;11335;43.848;25.958;2022-12-18T12:04:39;43.83;;;23.02;;
22334;SDS011;11335;43.848;25.958;2022-12-18T12:16:18;47.55;;;24.58;;
22334;SDS011;11335;43.848;25.958;2022-12-18T12:22:10;47.88;;;23.83;;
22334;SDS011;11335;43.848;25.958;2022-12-18T12:25:02;47.03;;;25.48;;
22334;SDS011;11335;43.848;25.958;2022-12-18T12:33:44;46.65;;;24.15;;
22334;SDS011;11335;43.848;25.958;2022-12-18T12:39:36;46.45;;;24.40;;
22334;SDS011;11335;43.848;25.958;2022-12-18T12:48:25;53.33;;;27.52;;
22334;SDS011;11335;43.848;25.958;2022-12-18T12:51:26;48.42;;;25.80;;
22334;SDS011;11335;43.848;25.958;2022-12-18T12:54:20;51.75;;;27.27;;
22334;SDS011;11335;43.848;25.958;2022-12-18T12:57:15;59.67;;;30.60;;
22334;SDS011;11335;43.848;25.958;2022-12-18T13:03:03;53.50;;;27.77;;
22334;SDS011;11335;43.848;25.958;2022-12-18T13:05:54;56.45;;;28.98;;
22334;SDS011;11335;43.848;25.958;2022-12-18T13:08:53;57.78;;;30.42;;
22334;SDS011;11335;43.848;25.958;2022-12-18T13:11:43;53.85;;;28.08;;
22334;SDS011;11335;43.848;25.958;2022-12-18T13:14:48;54.47;;;28.73;;
22334;SDS011;11335;43.848;25.958;2022-12-18T13:17:33;54.75;;;27.50;;
22334;SDS011;11335;43.848;25.958;2022-12-18T13:20:19;52.53;;;27.80;;
22334;SDS011;11335;43.848;25.958;2022-12-18T13:28:53;58.80;;;28.27;;
22334;SDS011;11335;43.848;25.958;2022-12-18T13:34:25;53.70;;;28.10;;
22334;SDS011;11335;43.848;25.958;2022-12-18T13:51:57;49.58;;;26.60;;
22334;SDS011;11335;43.848;25.958;2022-12-18T13:54:43;53.75;;;27.70;;
22334;SDS011;11335;43.848;25.958;2022-12-18T13:57:31;58.60;;;27.38;;
22334;SDS011;11335;43.848;25.958;2022-12-18T14:00:30;61.92;;;30.00;;
22334;SDS011;11335;43.848;25.958;2022-12-18T14:03:17;58.92;;;30.52;;
22334;SDS011;11335;43.848;25.958;2022-12-18T14:06:06;54.15;;;27.73;;
22334;SDS011;11335;43.848;25.958;2022-12-18T14:08:53;57.35;;;28.83;;
22334;SDS011;11335;43.848;25.958;2022-12-18T14:11:38;55.67;;;29.67;;
22334;SDS011;11335;43.848;25.958;2022-12-18T14:14:24;59.65;;;31.58;;
22334;SDS011;11335;43.848;25.958;2022-12-18T14:17:10;56.03;;;30.98;;
22334;SDS011;11335;43.848;25.958;2022-12-18T14:19:56;52.08;;;27.42;;
22334;SDS011;11335;43.848;25.958;2022-12-18T14:22:45;58.35;;;32.10;;
22334;SDS011;11335;43.848;25.958;2022-12-18T14:25:32;59.55;;;30.10;;
22334;SDS011;11335;43.848;25.958;2022-12-18T14:28:17;57.22;;;29.13;;
22334;SDS011;11335;43.848;25.958;2022-12-18T14:31:03;63.83;;;31.40;;
22334;SDS011;11335;43.848;25.958;2022-12-18T14:33:48;62.88;;;30.05;;
22334;SDS011;11335;43.848;25.958;2022-12-18T14:36:34;75.15;;;34.45;;
22334;SDS011;11335;43.848;25.958;2022-12-18T14:39:20;66.15;;;32.63;;
22334;SDS011;11335;43.848;25.958;2022-12-18T14:42:09;78.68;;;37.78;;
22334;SDS011;11335;43.848;25.958;2022-12-18T14:47:59;63.53;;;31.60;;
22334;SDS011;11335;43.848;25.958;2022-12-18T14:50:45;57.25;;;29.63;;
22334;SDS011;11335;43.848;25.958;2022-12-18T14:53:39;63.50;;;30.67;;
22334;SDS011;11335;43.848;25.958;2022-12-18T14:56:36;59.00;;;29.60;;
22334;SDS011;11335;43.848;25.958;2022-12-18T14:59:22;57.25;;;29.17;;
22334;SDS011;11335;43.848;25.958;2022-12-18T15:02:22;63.75;;;30.73;;
22334;SDS011;11335;43.848;25.958;2022-12-18T15:05:27;63.92;;;28.90;;
22334;SDS011;11335;43.848;25.958;2022-12-18T15:08:25;57.50;;;30.55;;
22334;SDS011;11335;43.848;25.958;2022-12-18T15:11:25;58.25;;;30.23;;
22334;SDS011;11335;43.848;25.958;2022-12-18T15:14:21;55.95;;;29.23;;
22334;SDS011;11335;43.848;25.958;2022-12-18T15:17:20;52.58;;;27.33;;
22334;SDS011;11335;43.848;25.958;2022-12-18T15:20:09;57.22;;;28.80;;
22334;SDS011;11335;43.848;25.958;2022-12-18T15:22:55;54.75;;;28.88;;
22334;SDS011;11335;43.848;25.958;2022-12-18T15:25:41;51.95;;;27.50;;
22334;SDS011;11335;43.848;25.958;2022-12-18T15:28:28;82.05;;;37.33;;
22334;SDS011;11335;43.848;25.958;2022-12-18T15:34:05;56.65;;;30.33;;
22334;SDS011;11335;43.848;25.958;2022-12-18T15:36:54;62.67;;;31.98;;
22334;SDS011;11335;43.848;25.958;2022-12-18T15:39:40;65.40;;;34.47;;
22334;SDS011;11335;43.848;25.958;2022-12-18T15:42:26;63.47;;;33.33;;
22334;SDS011;11335;43.848;25.958;2022-12-18T15:45:30;67.82;;;34.10;;
22334;SDS011;11335;43.848;25.958;2022-12-18T15:48:22;72.05;;;35.08;;
22334;SDS011;11335;43.848;25.958;2022-12-18T15:51:21;72.50;;;36.00;;
22334;SDS011;11335;43.848;25.958;2022-12-18T15:54:09;69.80;;;35.25;;
22334;SDS011;11335;43.848;25.958;2022-12-18T15:56:56;76.43;;;36.40;;
22334;SDS011;11335;43.848;25.958;2022-12-18T16:00:01;76.95;;;36.72;;
22334;SDS011;11335;43.848;25.958;2022-12-18T16:02:47;86.20;;;44.20;;
22334;SDS011;11335;43.848;25.958;2022-12-18T16:05:32;78.25;;;39.72;;
22334;SDS011;11335;43.848;25.958;2022-12-18T16:08:18;81.43;;;38.17;;
22334;SDS011;11335;43.848;25.958;2022-12-18T16:11:04;79.63;;;39.83;;
22334;SDS011;11335;43.848;25.958;2022-12-18T16:13:50;82.47;;;39.38;;
22334;SDS011;11335;43.848;25.958;2022-12-18T16:16:36;80.25;;;39.90;;
22334;SDS011;11335;43.848;25.958;2022-12-18T16:19:22;79.88;;;38.60;;
22334;SDS011;11335;43.848;25.958;2022-12-18T16:22:14;76.18;;;36.75;;
22334;SDS011;11335;43.848;25.958;2022-12-18T16:25:01;75.60;;;36.38;;
22334;SDS011;11335;43.848;25.958;2022-12-18T16:27:47;78.15;;;37.08;;
22334;SDS011;11335;43.848;25.958;2022-12-18T16:30:32;77.40;;;37.05;;
22334;SDS011;11335;43.848;25.958;2022-12-18T16:33:18;58.55;;;29.15;;
22334;SDS011;11335;43.848;25.958;2022-12-18T16:36:04;57.88;;;30.60;;
22334;SDS011;11335;43.848;25.958;2022-12-18T16:38:49;65.35;;;34.03;;
22334;SDS011;11335;43.848;25.958;2022-12-18T16:41:35;47.80;;;23.83;;
22334;SDS011;11335;43.848;25.958;2022-12-18T16:44:21;46.00;;;24.23;;
22334;SDS011;11335;43.848;25.958;2022-12-18T16:47:06;42.28;;;22.88;;
22334;SDS011;11335;43.848;25.958;2022-12-18T16:49:52;44.85;;;22.55;;
22334;SDS011;11335;43.848;25.958;2022-12-18T16:52:37;49.08;;;28.13;;
22334;SDS011;11335;43.848;25.958;2022-12-18T16:55:23;51.95;;;25.63;;
22334;SDS011;11335;43.848;25.958;2022-12-18T16:58:09;54.80;;;28.10;;
22334;SDS011;11335;43.848;25.958;2022-12-18T17:00:55;45.25;;;24.02;;
22334;SDS011;11335;43.848;25.958;2022-12-18T17:03:40;44.55;;;23.85;;
22334;SDS011;11335;43.848;25.958;2022-12-18T17:06:26;55.90;;;30.08;;
22334;SDS011;11335;43.848;25.958;2022-12-18T17:09:13;55.70;;;27.20;;
22334;SDS011;11335;43.848;25.958;2022-12-18T17:11:59;46.08;;;22.98;;
22334;SDS011;11335;43.848;25.958;2022-12-18T17:14:45;44.92;;;25.35;;
22334;SDS011;11335;43.848;25.958;2022-12-18T17:17:31;50.40;;;30.00;;
22334;SDS011;11335;43.848;25.958;2022-12-18T17:20:16;55.33;;;33.97;;
22334;SDS011;11335;43.848;25.958;2022-12-18T17:23:02;53.45;;;29.98;;
22334;SDS011;11335;43.848;25.958;2022-12-18T17:25:47;38.63;;;21.10;;
22334;SDS011;11335;43.848;25.958;2022-12-18T17:28:33;47.55;;;26.73;;
22334;SDS011;11335;43.848;25.958;2022-12-18T17:31:20;38.15;;;19.33;;
22334;SDS011;11335;43.848;25.958;2022-12-18T17:34:06;34.65;;;18.75;;
22334;SDS011;11335;43.848;25.958;2022-12-18T17:36:52;31.42;;;16.88;;
22334;SDS011;11335;43.848;25.958;2022-12-18T17:39:38;34.25;;;18.08;;
22334;SDS011;11335;43.848;25.958;2022-12-18T17:42:24;27.58;;;15.98;;
22334;SDS011;11335;43.848;25.958;2022-12-18T17:45:10;28.33;;;14.95;;